sensor_id;sensor_type;location;lat;lon;timestamp;P1;durP1;ratioP1;P2;durP2;ratioP2
67597;SDS011;62026;39.230;9.122;2023-05-23T00:00:56;14.23;;;6.32;;
67597;SDS011;62026;39.230;9.122;2023-05-23T00:03:24;10.60;;;6.20;;
67597;SDS011;62026;39.230;9.122;2023-05-23T00:05:51;11.50;;;6.47;;
67597;SDS011;62026;39.230;9.122;2023-05-23T00:08:17;10.65;;;5.75;;
67597;SDS011;62026;39.230;9.122;2023-05-23T00:10:43;11.88;;;6.57;;
67597;SDS011;62026;39.230;9.122;2023-05-23T00:13:10;11.25;;;6.50;;
67597;SDS011;62026;39.230;9.122;2023-05-23T00:15:39;12.10;;;5.88;;
67597;SDS011;62026;39.230;9.122;2023-05-23T00:18:06;13.10;;;6.70;;
67597;SDS011;62026;39.230;9.122;2023-05-23T00:20:36;10.30;;;5.43;;
67597;SDS011;62026;39.230;9.122;2023-05-23T00:23:05;10.18;;;5.75;;
67597;SDS011;62026;39.230;9.122;2023-05-23T00:25:33;12.75;;;5.60;;
67597;SDS011;62026;39.230;9.122;2023-05-23T00:28:00;9.70;;;6.05;;
67597;SDS011;62026;39.230;9.122;2023-05-23T00:30:30;11.40;;;5.32;;
67597;SDS011;62026;39.230;9.122;2023-05-23T00:32:57;15.10;;;6.03;;
67597;SDS011;62026;39.230;9.122;2023-05-23T00:35:24;12.10;;;5.38;;
67597;SDS011;62026;39.230;9.122;2023-05-23T00:37:51;10.75;;;5.63;;
67597;SDS011;62026;39.230;9.122;2023-05-23T00:40:18;8.98;;;5.10;;
67597;SDS011;62026;39.230;9.122;2023-05-23T00:42:44;16.83;;;6.07;;
67597;SDS011;62026;39.230;9.122;2023-05-23T00:45:12;9.60;;;5.18;;
67597;SDS011;62026;39.230;9.122;2023-05-23T00:47:40;11.27;;;5.38;;
67597;SDS011;62026;39.230;9.122;2023-05-23T00:50:09;9.80;;;4.93;;
67597;SDS011;62026;39.230;9.122;2023-05-23T00:52:38;9.88;;;4.72;;
67597;SDS011;62026;39.230;9.122;2023-05-23T00:55:06;8.48;;;5.20;;
67597;SDS011;62026;39.230;9.122;2023-05-23T00:57:34;8.05;;;5.10;;
67597;SDS011;62026;39.230;9.122;2023-05-23T01:00:09;12.77;;;5.63;;
67597;SDS011;62026;39.230;9.122;2023-05-23T01:02:43;18.92;;;5.85;;
67597;SDS011;62026;39.230;9.122;2023-05-23T01:05:12;9.18;;;4.78;;
67597;SDS011;62026;39.230;9.122;2023-05-23T01:07:44;9.77;;;5.32;;
67597;SDS011;62026;39.230;9.122;2023-05-23T01:10:22;8.68;;;5.10;;
67597;SDS011;62026;39.230;9.122;2023-05-23T01:12:57;7.97;;;4.78;;
67597;SDS011;62026;39.230;9.122;2023-05-23T01:15:36;10.30;;;5.00;;
67597;SDS011;62026;39.230;9.122;2023-05-23T01:21:27;9.65;;;4.80;;
67597;SDS011;62026;39.230;9.122;2023-05-23T01:29:42;7.05;;;5.07;;
67597;SDS011;62026;39.230;9.122;2023-05-23T01:32:11;10.63;;;4.78;;
67597;SDS011;62026;39.230;9.122;2023-05-23T01:34:40;8.35;;;4.65;;
67597;SDS011;62026;39.230;9.122;2023-05-23T01:37:08;8.23;;;4.57;;
67597;SDS011;62026;39.230;9.122;2023-05-23T01:39:37;10.20;;;4.88;;
67597;SDS011;62026;39.230;9.122;2023-05-23T01:42:03;9.10;;;4.60;;
67597;SDS011;62026;39.230;9.122;2023-05-23T01:44:31;9.70;;;4.90;;
67597;SDS011;62026;39.230;9.122;2023-05-23T01:47:00;6.00;;;4.63;;
67597;SDS011;62026;39.230;9.122;2023-05-23T01:49:29;7.38;;;4.32;;
67597;SDS011;62026;39.230;9.122;2023-05-23T01:51:57;11.70;;;4.35;;
67597;SDS011;62026;39.230;9.122;2023-05-23T01:54:26;10.95;;;4.95;;
67597;SDS011;62026;39.230;9.122;2023-05-23T01:56:57;11.77;;;4.63;;
67597;SDS011;62026;39.230;9.122;2023-05-23T01:59:25;9.30;;;4.20;;
67597;SDS011;62026;39.230;9.122;2023-05-23T02:01:53;6.47;;;4.18;;
67597;SDS011;62026;39.230;9.122;2023-05-23T02:04:20;7.38;;;4.40;;
67597;SDS011;62026;39.230;9.122;2023-05-23T02:06:46;10.30;;;4.53;;
67597;SDS011;62026;39.230;9.122;2023-05-23T02:09:12;8.50;;;4.03;;
67597;SDS011;62026;39.230;9.122;2023-05-23T02:11:38;10.13;;;4.60;;
67597;SDS011;62026;39.230;9.122;2023-05-23T02:14:05;9.77;;;4.60;;
67597;SDS011;62026;39.230;9.122;2023-05-23T02:16:31;8.10;;;4.63;;
67597;SDS011;62026;39.230;9.122;2023-05-23T02:19:00;6.53;;;4.38;;
67597;SDS011;62026;39.230;9.122;2023-05-23T02:21:27;9.25;;;4.57;;
67597;SDS011;62026;39.230;9.122;2023-05-23T02:23:53;6.93;;;4.20;;
67597;SDS011;62026;39.230;9.122;2023-05-23T02:26:19;7.43;;;4.35;;
67597;SDS011;62026;39.230;9.122;2023-05-23T02:28:45;6.65;;;4.30;;
67597;SDS011;62026;39.230;9.122;2023-05-23T02:31:13;11.68;;;4.57;;
67597;SDS011;62026;39.230;9.122;2023-05-23T02:33:41;7.90;;;4.20;;
67597;SDS011;62026;39.230;9.122;2023-05-23T02:36:07;6.85;;;4.03;;
67597;SDS011;62026;39.230;9.122;2023-05-23T02:38:33;7.72;;;4.55;;
67597;SDS011;62026;39.230;9.122;2023-05-23T02:40:59;8.00;;;4.25;;
67597;SDS011;62026;39.230;9.122;2023-05-23T02:43:25;8.48;;;4.15;;
67597;SDS011;62026;39.230;9.122;2023-05-23T02:45:52;7.88;;;4.15;;
67597;SDS011;62026;39.230;9.122;2023-05-23T02:48:17;8.68;;;4.38;;
67597;SDS011;62026;39.230;9.122;2023-05-23T02:50:45;8.98;;;4.20;;
67597;SDS011;62026;39.230;9.122;2023-05-23T02:53:11;8.77;;;4.50;;
67597;SDS011;62026;39.230;9.122;2023-05-23T02:55:37;7.28;;;3.88;;
67597;SDS011;62026;39.230;9.122;2023-05-23T02:58:03;7.78;;;3.90;;
67597;SDS011;62026;39.230;9.122;2023-05-23T03:00:30;10.82;;;4.35;;
67597;SDS011;62026;39.230;9.122;2023-05-23T03:02:57;8.25;;;3.88;;
67597;SDS011;62026;39.230;9.122;2023-05-23T03:05:23;8.50;;;4.05;;
67597;SDS011;62026;39.230;9.122;2023-05-23T03:07:49;13.23;;;4.53;;
67597;SDS011;62026;39.230;9.122;2023-05-23T03:10:16;8.52;;;3.83;;
67597;SDS011;62026;39.230;9.122;2023-05-23T03:12:43;6.60;;;4.15;;
67597;SDS011;62026;39.230;9.122;2023-05-23T03:15:09;7.25;;;3.72;;
67597;SDS011;62026;39.230;9.122;2023-05-23T03:17:38;6.57;;;4.30;;
67597;SDS011;62026;39.230;9.122;2023-05-23T03:20:04;7.93;;;4.47;;
67597;SDS011;62026;39.230;9.122;2023-05-23T03:22:34;7.65;;;3.97;;
67597;SDS011;62026;39.230;9.122;2023-05-23T03:25:01;8.88;;;3.90;;
67597;SDS011;62026;39.230;9.122;2023-05-23T03:27:28;9.65;;;4.15;;
67597;SDS011;62026;39.230;9.122;2023-05-23T03:29:54;8.52;;;4.32;;
67597;SDS011;62026;39.230;9.122;2023-05-23T03:32:20;7.45;;;4.20;;
67597;SDS011;62026;39.230;9.122;2023-05-23T03:34:46;11.32;;;4.57;;
67597;SDS011;62026;39.230;9.122;2023-05-23T03:37:12;10.15;;;4.32;;
67597;SDS011;62026;39.230;9.122;2023-05-23T03:39:38;8.10;;;4.38;;
67597;SDS011;62026;39.230;9.122;2023-05-23T03:42:04;8.20;;;4.32;;
67597;SDS011;62026;39.230;9.122;2023-05-23T03:44:31;9.93;;;4.65;;
67597;SDS011;62026;39.230;9.122;2023-05-23T03:46:57;11.50;;;4.75;;
67597;SDS011;62026;39.230;9.122;2023-05-23T03:49:23;9.52;;;4.60;;
67597;SDS011;62026;39.230;9.122;2023-05-23T03:51:49;8.20;;;4.70;;
67597;SDS011;62026;39.230;9.122;2023-05-23T03:54:16;8.07;;;4.30;;
67597;SDS011;62026;39.230;9.122;2023-05-23T03:56:42;8.75;;;4.35;;
67597;SDS011;62026;39.230;9.122;2023-05-23T03:59:08;6.80;;;4.10;;
67597;SDS011;62026;39.230;9.122;2023-05-23T04:01:34;10.02;;;4.57;;
67597;SDS011;62026;39.230;9.122;2023-05-23T04:04:00;8.00;;;4.30;;
67597;SDS011;62026;39.230;9.122;2023-05-23T04:06:30;9.48;;;4.60;;
67597;SDS011;62026;39.230;9.122;2023-05-23T04:08:58;8.80;;;4.78;;
67597;SDS011;62026;39.230;9.122;2023-05-23T04:11:24;15.52;;;4.90;;
67597;SDS011;62026;39.230;9.122;2023-05-23T04:13:50;10.45;;;5.30;;
67597;SDS011;62026;39.230;9.122;2023-05-23T04:16:17;9.70;;;4.60;;
67597;SDS011;62026;39.230;9.122;2023-05-23T04:18:43;12.32;;;4.57;;
67597;SDS011;62026;39.230;9.122;2023-05-23T04:21:12;12.63;;;4.75;;
67597;SDS011;62026;39.230;9.122;2023-05-23T04:23:47;8.88;;;4.28;;
67597;SDS011;62026;39.230;9.122;2023-05-23T04:26:13;8.75;;;4.63;;
67597;SDS011;62026;39.230;9.122;2023-05-23T04:28:47;15.05;;;5.25;;
67597;SDS011;62026;39.230;9.122;2023-05-23T04:31:14;10.30;;;4.82;;
67597;SDS011;62026;39.230;9.122;2023-05-23T04:33:40;8.73;;;4.53;;
67597;SDS011;62026;39.230;9.122;2023-05-23T04:36:07;10.43;;;4.88;;
67597;SDS011;62026;39.230;9.122;2023-05-23T04:38:35;7.45;;;4.50;;
67597;SDS011;62026;39.230;9.122;2023-05-23T04:41:03;11.65;;;5.15;;
67597;SDS011;62026;39.230;9.122;2023-05-23T04:43:54;7.10;;;4.60;;
67597;SDS011;62026;39.230;9.122;2023-05-23T04:46:29;9.60;;;4.63;;
67597;SDS011;62026;39.230;9.122;2023-05-23T04:49:31;8.13;;;4.05;;
67597;SDS011;62026;39.230;9.122;2023-05-23T04:51:59;7.65;;;4.28;;
67597;SDS011;62026;39.230;9.122;2023-05-23T04:54:27;9.27;;;3.88;;
67597;SDS011;62026;39.230;9.122;2023-05-23T04:56:54;7.40;;;3.75;;
67597;SDS011;62026;39.230;9.122;2023-05-23T04:59:22;9.57;;;4.00;;
67597;SDS011;62026;39.230;9.122;2023-05-23T05:01:49;8.75;;;3.88;;
67597;SDS011;62026;39.230;9.122;2023-05-23T05:04:15;7.90;;;4.10;;
67597;SDS011;62026;39.230;9.122;2023-05-23T05:06:41;10.95;;;3.92;;
67597;SDS011;62026;39.230;9.122;2023-05-23T05:09:08;7.63;;;4.00;;
67597;SDS011;62026;39.230;9.122;2023-05-23T05:11:35;11.23;;;4.70;;
67597;SDS011;62026;39.230;9.122;2023-05-23T05:14:01;9.48;;;4.55;;
67597;SDS011;62026;39.230;9.122;2023-05-23T05:16:27;12.45;;;4.97;;
67597;SDS011;62026;39.230;9.122;2023-05-23T05:18:53;12.00;;;5.35;;
67597;SDS011;62026;39.230;9.122;2023-05-23T05:21:20;10.90;;;4.32;;
67597;SDS011;62026;39.230;9.122;2023-05-23T05:23:46;10.30;;;4.10;;
67597;SDS011;62026;39.230;9.122;2023-05-23T05:26:14;8.02;;;4.20;;
67597;SDS011;62026;39.230;9.122;2023-05-23T05:28:41;12.27;;;4.55;;
67597;SDS011;62026;39.230;9.122;2023-05-23T05:31:07;9.63;;;3.92;;
67597;SDS011;62026;39.230;9.122;2023-05-23T05:33:35;7.90;;;4.22;;
67597;SDS011;62026;39.230;9.122;2023-05-23T05:36:07;8.57;;;4.00;;
67597;SDS011;62026;39.230;9.122;2023-05-23T05:38:34;9.00;;;4.32;;
67597;SDS011;62026;39.230;9.122;2023-05-23T05:41:00;9.32;;;4.63;;
67597;SDS011;62026;39.230;9.122;2023-05-23T05:43:31;11.77;;;6.93;;
67597;SDS011;62026;39.230;9.122;2023-05-23T05:45:57;9.88;;;5.25;;
67597;SDS011;62026;39.230;9.122;2023-05-23T05:48:23;8.00;;;4.55;;
67597;SDS011;62026;39.230;9.122;2023-05-23T05:50:52;9.75;;;4.25;;
67597;SDS011;62026;39.230;9.122;2023-05-23T05:53:18;10.18;;;4.05;;
67597;SDS011;62026;39.230;9.122;2023-05-23T05:55:44;11.45;;;4.30;;
67597;SDS011;62026;39.230;9.122;2023-05-23T05:58:10;8.45;;;4.38;;
67597;SDS011;62026;39.230;9.122;2023-05-23T06:00:53;6.75;;;3.78;;
67597;SDS011;62026;39.230;9.122;2023-05-23T06:03:20;6.53;;;4.68;;
67597;SDS011;62026;39.230;9.122;2023-05-23T06:05:51;6.67;;;3.57;;
67597;SDS011;62026;39.230;9.122;2023-05-23T06:08:17;7.40;;;3.90;;
67597;SDS011;62026;39.230;9.122;2023-05-23T06:10:43;14.43;;;4.35;;
67597;SDS011;62026;39.230;9.122;2023-05-23T06:13:09;6.60;;;3.67;;
67597;SDS011;62026;39.230;9.122;2023-05-23T06:15:37;10.18;;;4.20;;
67597;SDS011;62026;39.230;9.122;2023-05-23T06:18:03;12.32;;;4.10;;
67597;SDS011;62026;39.230;9.122;2023-05-23T06:20:30;6.28;;;3.60;;
67597;SDS011;62026;39.230;9.122;2023-05-23T06:22:58;7.22;;;3.42;;
67597;SDS011;62026;39.230;9.122;2023-05-23T06:25:26;13.75;;;4.28;;
67597;SDS011;62026;39.230;9.122;2023-05-23T06:27:52;5.72;;;3.10;;
67597;SDS011;62026;39.230;9.122;2023-05-23T06:30:18;7.63;;;2.63;;
67597;SDS011;62026;39.230;9.122;2023-05-23T06:32:45;9.13;;;3.20;;
67597;SDS011;62026;39.230;9.122;2023-05-23T06:35:10;8.00;;;3.22;;
67597;SDS011;62026;39.230;9.122;2023-05-23T06:37:37;9.70;;;3.42;;
67597;SDS011;62026;39.230;9.122;2023-05-23T06:40:07;13.88;;;3.50;;
67597;SDS011;62026;39.230;9.122;2023-05-23T06:42:34;4.47;;;2.72;;
67597;SDS011;62026;39.230;9.122;2023-05-23T06:45:07;6.53;;;3.20;;
67597;SDS011;62026;39.230;9.122;2023-05-23T06:47:33;10.23;;;3.35;;
67597;SDS011;62026;39.230;9.122;2023-05-23T06:50:01;9.45;;;3.10;;
67597;SDS011;62026;39.230;9.122;2023-05-23T06:52:29;5.13;;;3.05;;
67597;SDS011;62026;39.230;9.122;2023-05-23T06:54:55;5.45;;;3.00;;
67597;SDS011;62026;39.230;9.122;2023-05-23T06:57:21;5.90;;;2.97;;
67597;SDS011;62026;39.230;9.122;2023-05-23T06:59:48;5.30;;;2.78;;
67597;SDS011;62026;39.230;9.122;2023-05-23T07:02:14;6.25;;;2.80;;
67597;SDS011;62026;39.230;9.122;2023-05-23T07:04:40;4.55;;;2.80;;
67597;SDS011;62026;39.230;9.122;2023-05-23T07:07:13;6.97;;;3.33;;
67597;SDS011;62026;39.230;9.122;2023-05-23T07:09:40;6.63;;;3.15;;
67597;SDS011;62026;39.230;9.122;2023-05-23T07:12:10;7.97;;;2.92;;
67597;SDS011;62026;39.230;9.122;2023-05-23T07:14:39;7.32;;;3.05;;
67597;SDS011;62026;39.230;9.122;2023-05-23T07:17:05;9.55;;;3.22;;
67597;SDS011;62026;39.230;9.122;2023-05-23T07:19:32;11.60;;;2.50;;
67597;SDS011;62026;39.230;9.122;2023-05-23T07:21:59;5.00;;;2.50;;
67597;SDS011;62026;39.230;9.122;2023-05-23T07:24:25;3.25;;;2.28;;
67597;SDS011;62026;39.230;9.122;2023-05-23T07:26:54;7.45;;;2.80;;
67597;SDS011;62026;39.230;9.122;2023-05-23T07:29:21;4.50;;;2.50;;
67597;SDS011;62026;39.230;9.122;2023-05-23T07:31:49;8.15;;;2.75;;
67597;SDS011;62026;39.230;9.122;2023-05-23T07:34:16;4.00;;;2.63;;
67597;SDS011;62026;39.230;9.122;2023-05-23T07:36:54;6.03;;;2.40;;
67597;SDS011;62026;39.230;9.122;2023-05-23T07:39:22;5.18;;;2.40;;
67597;SDS011;62026;39.230;9.122;2023-05-23T07:41:51;4.63;;;2.50;;
67597;SDS011;62026;39.230;9.122;2023-05-23T07:44:17;4.05;;;2.50;;
67597;SDS011;62026;39.230;9.122;2023-05-23T07:46:44;7.53;;;2.65;;
67597;SDS011;62026;39.230;9.122;2023-05-23T07:49:10;4.18;;;2.20;;
67597;SDS011;62026;39.230;9.122;2023-05-23T07:51:36;5.22;;;2.70;;
67597;SDS011;62026;39.230;9.122;2023-05-23T07:54:02;7.05;;;2.63;;
67597;SDS011;62026;39.230;9.122;2023-05-23T07:56:28;11.07;;;2.83;;
67597;SDS011;62026;39.230;9.122;2023-05-23T07:58:55;3.80;;;2.78;;
67597;SDS011;62026;39.230;9.122;2023-05-23T08:01:22;4.65;;;2.50;;
67597;SDS011;62026;39.230;9.122;2023-05-23T08:03:57;3.70;;;2.40;;
67597;SDS011;62026;39.230;9.122;2023-05-23T08:06:31;8.65;;;2.45;;
67597;SDS011;62026;39.230;9.122;2023-05-23T08:09:00;3.58;;;2.45;;
67597;SDS011;62026;39.230;9.122;2023-05-23T08:11:28;5.95;;;2.80;;
67597;SDS011;62026;39.230;9.122;2023-05-23T08:13:55;4.60;;;2.40;;
67597;SDS011;62026;39.230;9.122;2023-05-23T08:16:36;4.68;;;2.33;;
67597;SDS011;62026;39.230;9.122;2023-05-23T08:19:05;10.52;;;2.72;;
67597;SDS011;62026;39.230;9.122;2023-05-23T08:21:32;3.60;;;2.40;;
67597;SDS011;62026;39.230;9.122;2023-05-23T08:23:58;5.60;;;2.60;;
67597;SDS011;62026;39.230;9.122;2023-05-23T08:26:24;4.43;;;2.50;;
67597;SDS011;62026;39.230;9.122;2023-05-23T08:28:54;3.55;;;2.47;;
67597;SDS011;62026;39.230;9.122;2023-05-23T08:31:21;5.40;;;2.38;;
67597;SDS011;62026;39.230;9.122;2023-05-23T08:33:47;4.68;;;2.55;;
67597;SDS011;62026;39.230;9.122;2023-05-23T08:36:13;3.75;;;2.40;;
67597;SDS011;62026;39.230;9.122;2023-05-23T08:38:41;6.18;;;2.78;;
67597;SDS011;62026;39.230;9.122;2023-05-23T08:41:19;3.47;;;2.50;;
67597;SDS011;62026;39.230;9.122;2023-05-23T08:43:50;7.32;;;2.45;;
67597;SDS011;62026;39.230;9.122;2023-05-23T08:46:23;3.20;;;2.05;;
67597;SDS011;62026;39.230;9.122;2023-05-23T08:48:52;5.55;;;2.55;;
67597;SDS011;62026;39.230;9.122;2023-05-23T08:51:21;5.55;;;2.15;;
67597;SDS011;62026;39.230;9.122;2023-05-23T08:53:50;5.70;;;2.08;;
67597;SDS011;62026;39.230;9.122;2023-05-23T08:56:20;5.47;;;2.55;;
67597;SDS011;62026;39.230;9.122;2023-05-23T08:58:49;5.15;;;2.35;;
67597;SDS011;62026;39.230;9.122;2023-05-23T09:01:18;6.10;;;2.20;;
67597;SDS011;62026;39.230;9.122;2023-05-23T09:03:50;4.90;;;2.45;;
67597;SDS011;62026;39.230;9.122;2023-05-23T09:06:39;3.75;;;2.35;;
67597;SDS011;62026;39.230;9.122;2023-05-23T09:09:05;3.85;;;2.30;;
67597;SDS011;62026;39.230;9.122;2023-05-23T09:11:31;5.97;;;2.70;;
67597;SDS011;62026;39.230;9.122;2023-05-23T09:14:01;4.97;;;2.40;;
67597;SDS011;62026;39.230;9.122;2023-05-23T09:16:31;5.15;;;2.13;;
67597;SDS011;62026;39.230;9.122;2023-05-23T09:19:10;8.25;;;2.45;;
67597;SDS011;62026;39.230;9.122;2023-05-23T09:21:41;6.68;;;2.10;;
67597;SDS011;62026;39.230;9.122;2023-05-23T09:24:17;5.30;;;2.30;;
67597;SDS011;62026;39.230;9.122;2023-05-23T09:26:47;3.75;;;2.10;;
67597;SDS011;62026;39.230;9.122;2023-05-23T09:29:16;3.38;;;2.00;;
67597;SDS011;62026;39.230;9.122;2023-05-23T09:31:46;4.35;;;2.40;;
67597;SDS011;62026;39.230;9.122;2023-05-23T09:34:12;4.93;;;2.17;;
67597;SDS011;62026;39.230;9.122;2023-05-23T09:36:39;9.43;;;2.33;;
67597;SDS011;62026;39.230;9.122;2023-05-23T09:39:09;2.75;;;2.13;;
67597;SDS011;62026;39.230;9.122;2023-05-23T09:41:37;3.53;;;1.98;;
67597;SDS011;62026;39.230;9.122;2023-05-23T09:44:04;8.75;;;2.17;;
67597;SDS011;62026;39.230;9.122;2023-05-23T09:46:33;5.45;;;2.67;;
67597;SDS011;62026;39.230;9.122;2023-05-23T09:49:03;6.43;;;3.13;;
67597;SDS011;62026;39.230;9.122;2023-05-23T09:51:42;6.47;;;3.00;;
67597;SDS011;62026;39.230;9.122;2023-05-23T09:54:09;20.00;;;10.55;;
67597;SDS011;62026;39.230;9.122;2023-05-23T09:56:35;11.98;;;6.15;;
67597;SDS011;62026;39.230;9.122;2023-05-23T09:59:07;16.67;;;8.75;;
67597;SDS011;62026;39.230;9.122;2023-05-23T10:01:40;13.20;;;5.25;;
67597;SDS011;62026;39.230;9.122;2023-05-23T10:04:10;9.27;;;3.75;;
67597;SDS011;62026;39.230;9.122;2023-05-23T10:06:40;7.35;;;2.92;;
67597;SDS011;62026;39.230;9.122;2023-05-23T10:09:18;5.93;;;2.05;;
67597;SDS011;62026;39.230;9.122;2023-05-23T10:15:00;4.20;;;2.30;;
67597;SDS011;62026;39.230;9.122;2023-05-23T10:20:39;6.00;;;2.88;;
67597;SDS011;62026;39.230;9.122;2023-05-23T10:23:11;8.88;;;2.85;;
67597;SDS011;62026;39.230;9.122;2023-05-23T10:25:38;5.50;;;2.90;;
67597;SDS011;62026;39.230;9.122;2023-05-23T10:28:06;5.97;;;2.63;;
67597;SDS011;62026;39.230;9.122;2023-05-23T10:30:32;11.25;;;2.90;;
67597;SDS011;62026;39.230;9.122;2023-05-23T10:32:59;6.63;;;3.05;;
67597;SDS011;62026;39.230;9.122;2023-05-23T10:37:58;3.92;;;2.28;;
67597;SDS011;62026;39.230;9.122;2023-05-23T10:43:47;4.07;;;2.15;;
67597;SDS011;62026;39.230;9.122;2023-05-23T10:52:15;4.35;;;2.13;;
67597;SDS011;62026;39.230;9.122;2023-05-23T10:54:43;8.07;;;2.35;;
67597;SDS011;62026;39.230;9.122;2023-05-23T10:57:15;6.82;;;2.20;;
67597;SDS011;62026;39.230;9.122;2023-05-23T10:59:48;8.55;;;2.20;;
67597;SDS011;62026;39.230;9.122;2023-05-23T11:02:16;6.28;;;2.35;;
67597;SDS011;62026;39.230;9.122;2023-05-23T11:05:17;6.15;;;1.90;;
67597;SDS011;62026;39.230;9.122;2023-05-23T11:08:07;6.13;;;1.90;;
67597;SDS011;62026;39.230;9.122;2023-05-23T11:16:30;7.18;;;1.90;;
67597;SDS011;62026;39.230;9.122;2023-05-23T11:22:16;9.57;;;2.45;;
67597;SDS011;62026;39.230;9.122;2023-05-23T11:30:09;6.80;;;2.38;;
67597;SDS011;62026;39.230;9.122;2023-05-23T11:32:49;7.93;;;2.30;;
67597;SDS011;62026;39.230;9.122;2023-05-23T11:35:17;7.55;;;2.20;;
67597;SDS011;62026;39.230;9.122;2023-05-23T11:37:44;8.00;;;2.08;;
67597;SDS011;62026;39.230;9.122;2023-05-23T11:42:59;7.78;;;2.10;;
67597;SDS011;62026;39.230;9.122;2023-05-23T11:45:28;6.63;;;2.58;;
67597;SDS011;62026;39.230;9.122;2023-05-23T11:47:56;6.68;;;2.20;;
67597;SDS011;62026;39.230;9.122;2023-05-23T11:50:22;8.00;;;2.05;;
67597;SDS011;62026;39.230;9.122;2023-05-23T11:52:49;14.38;;;2.33;;
67597;SDS011;62026;39.230;9.122;2023-05-23T11:55:19;11.18;;;2.20;;
67597;SDS011;62026;39.230;9.122;2023-05-23T11:57:46;5.70;;;2.45;;
67597;SDS011;62026;39.230;9.122;2023-05-23T12:00:14;6.45;;;2.08;;
67597;SDS011;62026;39.230;9.122;2023-05-23T12:02:41;10.93;;;2.35;;
67597;SDS011;62026;39.230;9.122;2023-05-23T12:05:09;8.60;;;2.53;;
67597;SDS011;62026;39.230;9.122;2023-05-23T12:07:40;7.88;;;2.08;;
67597;SDS011;62026;39.230;9.122;2023-05-23T12:10:11;7.80;;;2.30;;
67597;SDS011;62026;39.230;9.122;2023-05-23T12:12:42;5.88;;;2.03;;
67597;SDS011;62026;39.230;9.122;2023-05-23T12:15:09;8.90;;;2.13;;
67597;SDS011;62026;39.230;9.122;2023-05-23T12:17:37;8.13;;;2.25;;
67597;SDS011;62026;39.230;9.122;2023-05-23T12:20:09;7.90;;;2.30;;
67597;SDS011;62026;39.230;9.122;2023-05-23T12:22:36;8.90;;;2.35;;
67597;SDS011;62026;39.230;9.122;2023-05-23T12:25:02;8.23;;;2.17;;
67597;SDS011;62026;39.230;9.122;2023-05-23T12:27:33;8.13;;;2.38;;
67597;SDS011;62026;39.230;9.122;2023-05-23T12:30:05;9.85;;;2.38;;
67597;SDS011;62026;39.230;9.122;2023-05-23T12:32:42;8.48;;;2.65;;
67597;SDS011;62026;39.230;9.122;2023-05-23T12:35:13;5.90;;;2.22;;
67597;SDS011;62026;39.230;9.122;2023-05-23T12:37:43;7.75;;;2.40;;
67597;SDS011;62026;39.230;9.122;2023-05-23T12:42:44;10.15;;;2.22;;
67597;SDS011;62026;39.230;9.122;2023-05-23T12:47:57;10.15;;;2.40;;
67597;SDS011;62026;39.230;9.122;2023-05-23T12:50:24;10.13;;;2.03;;
67597;SDS011;62026;39.230;9.122;2023-05-23T12:52:51;6.65;;;2.15;;
67597;SDS011;62026;39.230;9.122;2023-05-23T12:55:17;4.50;;;2.10;;
67597;SDS011;62026;39.230;9.122;2023-05-23T12:57:43;9.75;;;2.30;;
67597;SDS011;62026;39.230;9.122;2023-05-23T13:00:09;6.00;;;2.28;;
67597;SDS011;62026;39.230;9.122;2023-05-23T13:02:36;12.02;;;2.90;;
67597;SDS011;62026;39.230;9.122;2023-05-23T13:05:04;6.47;;;2.13;;
67597;SDS011;62026;39.230;9.122;2023-05-23T13:07:31;8.20;;;2.33;;
67597;SDS011;62026;39.230;9.122;2023-05-23T13:09:57;7.47;;;2.20;;
67597;SDS011;62026;39.230;9.122;2023-05-23T13:12:23;6.18;;;2.10;;
67597;SDS011;62026;39.230;9.122;2023-05-23T13:14:49;9.38;;;2.50;;
67597;SDS011;62026;39.230;9.122;2023-05-23T13:17:15;4.47;;;2.30;;
67597;SDS011;62026;39.230;9.122;2023-05-23T13:19:42;9.43;;;2.40;;
67597;SDS011;62026;39.230;9.122;2023-05-23T13:22:08;7.53;;;2.20;;
67597;SDS011;62026;39.230;9.122;2023-05-23T13:24:37;8.63;;;2.67;;
67597;SDS011;62026;39.230;9.122;2023-05-23T13:27:05;7.57;;;2.40;;
67597;SDS011;62026;39.230;9.122;2023-05-23T13:29:32;8.40;;;2.60;;
67597;SDS011;62026;39.230;9.122;2023-05-23T13:31:58;6.05;;;2.30;;
67597;SDS011;62026;39.230;9.122;2023-05-23T13:34:25;7.30;;;2.60;;
67597;SDS011;62026;39.230;9.122;2023-05-23T13:36:53;9.07;;;2.60;;
67597;SDS011;62026;39.230;9.122;2023-05-23T13:39:19;8.73;;;2.75;;
67597;SDS011;62026;39.230;9.122;2023-05-23T13:41:47;11.20;;;2.40;;
67597;SDS011;62026;39.230;9.122;2023-05-23T13:44:14;10.85;;;2.88;;
67597;SDS011;62026;39.230;9.122;2023-05-23T13:46:41;7.60;;;2.70;;
67597;SDS011;62026;39.230;9.122;2023-05-23T13:49:07;4.07;;;2.35;;
67597;SDS011;62026;39.230;9.122;2023-05-23T13:51:33;7.90;;;3.00;;
67597;SDS011;62026;39.230;9.122;2023-05-23T13:54:01;6.03;;;2.70;;
67597;SDS011;62026;39.230;9.122;2023-05-23T13:56:30;5.63;;;2.60;;
67597;SDS011;62026;39.230;9.122;2023-05-23T13:58:56;10.75;;;3.30;;
67597;SDS011;62026;39.230;9.122;2023-05-23T14:01:22;7.68;;;2.70;;
67597;SDS011;62026;39.230;9.122;2023-05-23T14:03:48;7.63;;;2.63;;
67597;SDS011;62026;39.230;9.122;2023-05-23T14:06:14;7.88;;;2.67;;
67597;SDS011;62026;39.230;9.122;2023-05-23T14:08:40;13.65;;;3.55;;
67597;SDS011;62026;39.230;9.122;2023-05-23T14:11:06;7.43;;;2.55;;
67597;SDS011;62026;39.230;9.122;2023-05-23T14:13:32;10.98;;;2.83;;
67597;SDS011;62026;39.230;9.122;2023-05-23T14:15:58;6.43;;;2.20;;
67597;SDS011;62026;39.230;9.122;2023-05-23T14:18:24;7.07;;;2.25;;
67597;SDS011;62026;39.230;9.122;2023-05-23T14:20:50;11.63;;;2.47;;
67597;SDS011;62026;39.230;9.122;2023-05-23T14:23:16;8.65;;;2.10;;
67597;SDS011;62026;39.230;9.122;2023-05-23T14:25:42;5.78;;;2.33;;
67597;SDS011;62026;39.230;9.122;2023-05-23T14:28:09;7.80;;;2.50;;
67597;SDS011;62026;39.230;9.122;2023-05-23T14:30:35;4.00;;;2.10;;
67597;SDS011;62026;39.230;9.122;2023-05-23T14:33:01;6.53;;;2.40;;
67597;SDS011;62026;39.230;9.122;2023-05-23T14:35:27;6.03;;;2.35;;
67597;SDS011;62026;39.230;9.122;2023-05-23T14:37:53;6.55;;;2.50;;
67597;SDS011;62026;39.230;9.122;2023-05-23T14:40:20;5.05;;;2.17;;
67597;SDS011;62026;39.230;9.122;2023-05-23T14:42:46;5.97;;;2.25;;
67597;SDS011;62026;39.230;9.122;2023-05-23T14:45:11;7.00;;;2.30;;
67597;SDS011;62026;39.230;9.122;2023-05-23T14:47:37;6.90;;;2.08;;
67597;SDS011;62026;39.230;9.122;2023-05-23T14:50:04;7.07;;;2.20;;
67597;SDS011;62026;39.230;9.122;2023-05-23T14:52:30;5.85;;;2.33;;
67597;SDS011;62026;39.230;9.122;2023-05-23T14:54:56;7.18;;;2.50;;
67597;SDS011;62026;39.230;9.122;2023-05-23T14:57:22;8.88;;;2.53;;
67597;SDS011;62026;39.230;9.122;2023-05-23T14:59:48;9.98;;;3.10;;
67597;SDS011;62026;39.230;9.122;2023-05-23T15:02:14;7.28;;;2.40;;
67597;SDS011;62026;39.230;9.122;2023-05-23T15:04:41;6.18;;;2.30;;
67597;SDS011;62026;39.230;9.122;2023-05-23T15:07:07;8.40;;;2.55;;
67597;SDS011;62026;39.230;9.122;2023-05-23T15:09:33;7.18;;;2.30;;
67597;SDS011;62026;39.230;9.122;2023-05-23T15:11:59;6.38;;;2.47;;
67597;SDS011;62026;39.230;9.122;2023-05-23T15:14:25;7.68;;;2.60;;
67597;SDS011;62026;39.230;9.122;2023-05-23T15:16:54;7.00;;;3.20;;
67597;SDS011;62026;39.230;9.122;2023-05-23T15:19:20;7.35;;;2.45;;
67597;SDS011;62026;39.230;9.122;2023-05-23T15:21:46;5.65;;;2.50;;
67597;SDS011;62026;39.230;9.122;2023-05-23T15:24:12;9.90;;;2.60;;
67597;SDS011;62026;39.230;9.122;2023-05-23T15:26:38;7.65;;;2.50;;
67597;SDS011;62026;39.230;9.122;2023-05-23T15:29:05;10.13;;;2.83;;
67597;SDS011;62026;39.230;9.122;2023-05-23T15:31:31;8.40;;;2.63;;
67597;SDS011;62026;39.230;9.122;2023-05-23T15:33:57;6.05;;;2.47;;
67597;SDS011;62026;39.230;9.122;2023-05-23T15:36:23;5.60;;;2.35;;
67597;SDS011;62026;39.230;9.122;2023-05-23T15:38:49;8.77;;;2.30;;
67597;SDS011;62026;39.230;9.122;2023-05-23T15:41:15;9.98;;;2.90;;